Time;durP1;ratioP1;P1;durP2;ratioP2;P2;SDS_P1;SDS_P2;PMS_P1;PMS_P2;Temp;Humidity;BMP_temperature;BMP_pressure;BME280_temperature;BME280_humidity;BME280_pressure;Samples;Min_cycle;Max_cycle;Signal;HPM_P1;HPM_P2
2021/11/06 00:00:15;;;;;;;8.02;5.20;;;;;;;;;;5005474;28;20037;-89
2021/11/06 00:02:40;;;;;;;8.32;5.65;;;;;;;;;;5010456;28;20022;-87
2021/11/06 00:05:06;;;;;;;9.25;5.63;;;;;;;;;;5010522;28;20021;-81
2021/11/06 00:07:32;;;;;;;11.43;6.60;;;;;;;;;;5007811;28;20036;-87
2021/11/06 00:09:57;;;;;;;9.63;6.03;;;;;;;;;;5004033;28;20021;-83
2021/11/06 00:12:23;;;;;;;11.20;6.10;;;;;;;;;;5009247;28;20397;-86
2021/11/06 00:14:49;;;;;;;10.02;5.88;;;;;;;;;;5005682;28;20309;-89
2021/11/06 00:17:14;;;;;;;10.55;6.15;;;;;;;;;;5009951;28;20029;-82
2021/11/06 00:19:39;;;;;;;10.57;6.28;;;;;;;;;;5009309;28;20021;-88
2021/11/06 00:22:06;;;;;;;9.15;6.45;;;;;;;;;;5009475;28;20117;-82
2021/11/06 00:24:31;;;;;;;9.77;6.25;;;;;;;;;;5005426;28;20505;-80
2021/11/06 00:26:57;;;;;;;9.40;6.45;;;;;;;;;;5017468;28;20030;-80
2021/11/06 00:29:22;;;;;;;11.65;6.40;;;;;;;;;;5010289;28;20500;-88
2021/11/06 00:31:49;;;;;;;12.68;6.63;;;;;;;;;;5017054;28;20477;-80
2021/11/06 00:34:14;;;;;;;13.73;6.65;;;;;;;;;;5014672;28;20097;-80
2021/11/06 00:36:40;;;;;;;11.23;6.93;;;;;;;;;;5008632;28;20523;-80
2021/11/06 00:39:06;;;;;;;10.20;6.43;;;;;;;;;;5011816;28;20034;-89
2021/11/06 00:41:32;;;;;;;10.90;6.80;;;;;;;;;;5005913;28;20396;-81
2021/11/06 00:43:58;;;;;;;10.45;6.28;;;;;;;;;;5006092;28;20034;-86
2021/11/06 00:46:23;;;;;;;13.63;6.78;;;;;;;;;;5015949;28;20493;-88
2021/11/06 00:48:49;;;;;;;10.52;6.53;;;;;;;;;;5018937;28;20045;-89
2021/11/06 00:51:15;;;;;;;10.90;6.60;;;;;;;;;;5015291;28;20026;-88
2021/11/06 00:53:40;;;;;;;13.10;7.70;;;;;;;;;;5015430;28;20029;-80
2021/11/06 00:56:06;;;;;;;17.38;6.68;;;;;;;;;;5011527;28;20041;-89
2021/11/06 00:58:31;;;;;;;11.68;6.97;;;;;;;;;;5002597;28;20490;-88
2021/11/06 01:00:57;;;;;;;14.38;7.43;;;;;;;;;;5004195;28;20033;-81
2021/11/06 01:03:22;;;;;;;14.82;7.45;;;;;;;;;;5006508;28;20037;-81
2021/11/06 01:05:48;;;;;;;13.18;7.18;;;;;;;;;;5007815;28;20022;-82
2021/11/06 01:08:13;;;;;;;17.40;8.00;;;;;;;;;;5005912;28;20030;-80
2021/11/06 01:10:38;;;;;;;15.13;6.97;;;;;;;;;;5009441;28;20033;-81
2021/11/06 01:13:04;;;;;;;13.98;7.57;;;;;;;;;;5012945;28;20038;-81
2021/11/06 01:15:29;;;;;;;18.00;8.10;;;;;;;;;;5009510;28;20042;-86
2021/11/06 01:17:55;;;;;;;18.00;8.23;;;;;;;;;;5010979;28;20028;-87
2021/11/06 01:20:20;;;;;;;18.83;7.97;;;;;;;;;;5014898;28;20021;-88
2021/11/06 01:22:46;;;;;;;17.73;9.23;;;;;;;;;;5018680;28;20096;-79
2021/11/06 01:25:13;;;;;;;16.88;8.15;;;;;;;;;;5014476;28;20456;-88
2021/11/06 01:27:39;;;;;;;20.10;8.57;;;;;;;;;;5025908;28;20531;-89
2021/11/06 01:30:06;;;;;;;19.45;8.93;;;;;;;;;;5009301;28;20030;-81
2021/11/06 01:32:31;;;;;;;22.25;9.90;;;;;;;;;;5015088;28;20029;-88
2021/11/06 01:34:57;;;;;;;23.70;9.90;;;;;;;;;;5019952;28;20080;-89
2021/11/06 01:37:22;;;;;;;22.50;10.18;;;;;;;;;;5017832;28;21352;-81
2021/11/06 01:39:48;;;;;;;23.73;10.48;;;;;;;;;;5016917;28;20040;-80
2021/11/06 01:42:13;;;;;;;28.73;10.38;;;;;;;;;;5016902;28;20072;-80
2021/11/06 01:44:38;;;;;;;26.23;10.60;;;;;;;;;;5014265;28;20087;-87
2021/11/06 01:47:06;;;;;;;22.13;10.68;;;;;;;;;;5024355;28;20370;-89
2021/11/06 01:49:31;;;;;;;24.67;11.32;;;;;;;;;;5012462;28;20026;-89
2021/11/06 01:51:57;;;;;;;24.42;11.18;;;;;;;;;;5017389;28;20034;-89
2021/11/06 01:54:23;;;;;;;24.75;11.35;;;;;;;;;;5009459;28;20498;-80
2021/11/06 01:56:50;;;;;;;28.13;11.90;;;;;;;;;;5015658;28;20029;-86
2021/11/06 01:59:15;;;;;;;27.23;11.27;;;;;;;;;;5012697;28;20030;-88
2021/11/06 02:01:41;;;;;;;26.13;10.85;;;;;;;;;;5013853;28;20037;-88
2021/11/06 02:04:06;;;;;;;24.88;11.55;;;;;;;;;;5015689;28;20026;-87
2021/11/06 02:06:32;;;;;;;23.90;11.45;;;;;;;;;;5012646;28;20025;-88
2021/11/06 02:08:57;;;;;;;24.83;11.07;;;;;;;;;;5014537;28;20049;-80
2021/11/06 02:11:23;;;;;;;25.27;11.05;;;;;;;;;;5004330;28;20485;-88
2021/11/06 02:13:48;;;;;;;22.60;11.13;;;;;;;;;;5020028;28;20049;-80
2021/11/06 02:16:14;;;;;;;23.00;11.50;;;;;;;;;;5013094;28;20034;-80
2021/11/06 02:18:41;;;;;;;20.55;11.25;;;;;;;;;;5012585;28;20038;-81
2021/11/06 02:21:08;;;;;;;23.45;11.05;;;;;;;;;;5009009;28;20116;-87
2021/11/06 02:23:40;;;;;;;22.00;10.45;;;;;;;;;;5009026;28;20022;-81
2021/11/06 02:26:08;;;;;;;22.33;10.48;;;;;;;;;;5010462;28;20084;-80
2021/11/06 02:28:34;;;;;;;21.60;11.10;;;;;;;;;;5020276;28;20041;-81
2021/11/06 02:30:59;;;;;;;20.35;10.70;;;;;;;;;;5008132;28;20033;-88
2021/11/06 02:33:25;;;;;;;21.33;10.25;;;;;;;;;;5011812;28;20388;-80
2021/11/06 02:35:51;;;;;;;19.02;10.10;;;;;;;;;;5015935;28;20033;-87
2021/11/06 02:38:16;;;;;;;18.17;9.90;;;;;;;;;;5011107;28;20366;-86
2021/11/06 02:40:41;;;;;;;20.15;10.15;;;;;;;;;;5011630;28;20965;-88
2021/11/06 02:43:09;;;;;;;19.95;10.63;;;;;;;;;;5004896;28;20085;-80
2021/11/06 02:45:35;;;;;;;18.35;9.82;;;;;;;;;;5012482;28;20034;-81
2021/11/06 02:48:01;;;;;;;18.88;9.65;;;;;;;;;;5009979;28;20038;-82
2021/11/06 02:50:27;;;;;;;20.52;9.82;;;;;;;;;;5013072;28;20028;-88
2021/11/06 02:52:52;;;;;;;19.67;9.88;;;;;;;;;;5013404;28;20080;-81
2021/11/06 02:55:18;;;;;;;20.13;9.65;;;;;;;;;;5005800;28;20045;-87
2021/11/06 02:57:44;;;;;;;18.42;9.77;;;;;;;;;;5004725;28;20092;-80
2021/11/06 03:00:10;;;;;;;20.00;9.90;;;;;;;;;;5009932;28;20425;-87
2021/11/06 03:02:36;;;;;;;18.30;9.38;;;;;;;;;;5003958;28;20117;-86
2021/11/06 03:05:07;;;;;;;19.35;9.50;;;;;;;;;;5002259;28;20113;-89
2021/11/06 03:07:33;;;;;;;18.02;9.82;;;;;;;;;;5020085;28;20071;-90
2021/11/06 03:09:58;;;;;;;18.15;9.55;;;;;;;;;;5005167;28;20030;-81
2021/11/06 03:12:25;;;;;;;19.33;10.38;;;;;;;;;;5007960;28;20490;-79
2021/11/06 03:14:51;;;;;;;17.70;9.88;;;;;;;;;;5012887;28;20103;-83
2021/11/06 03:17:16;;;;;;;16.52;9.43;;;;;;;;;;5013343;28;20021;-79
2021/11/06 03:19:41;;;;;;;18.05;9.50;;;;;;;;;;5009112;28;20500;-87
2021/11/06 03:22:07;;;;;;;17.08;9.75;;;;;;;;;;5002089;28;20041;-87
2021/11/06 03:24:33;;;;;;;19.30;9.50;;;;;;;;;;5012712;28;20051;-87
2021/11/06 03:26:59;;;;;;;19.67;9.32;;;;;;;;;;5005221;28;20029;-80
2021/11/06 03:29:24;;;;;;;19.92;9.95;;;;;;;;;;5011491;28;20030;-82
2021/11/06 03:31:50;;;;;;;18.23;9.65;;;;;;;;;;5012091;28;20541;-89
2021/11/06 03:34:15;;;;;;;16.95;9.57;;;;;;;;;;5002967;28;20064;-89
2021/11/06 03:36:41;;;;;;;18.42;10.30;;;;;;;;;;5010058;28;20057;-88
2021/11/06 03:39:07;;;;;;;20.05;10.25;;;;;;;;;;5014460;28;20544;-88
2021/11/06 03:41:33;;;;;;;18.23;9.57;;;;;;;;;;5009679;28;20081;-89
2021/11/06 03:43:59;;;;;;;19.67;10.13;;;;;;;;;;5005566;28;20038;-88
2021/11/06 03:46:24;;;;;;;19.15;10.05;;;;;;;;;;5012560;28;20044;-81
2021/11/06 03:48:49;;;;;;;20.45;10.02;;;;;;;;;;5012433;28;20050;-87
2021/11/06 03:51:15;;;;;;;21.08;9.90;;;;;;;;;;5013723;28;20469;-80
2021/11/06 03:53:40;;;;;;;18.92;10.00;;;;;;;;;;5013724;28;20087;-79
2021/11/06 03:56:06;;;;;;;18.40;9.95;;;;;;;;;;5007876;28;20054;-83
2021/11/06 03:58:31;;;;;;;18.35;10.10;;;;;;;;;;5010207;28;20030;-87
2021/11/06 04:00:56;;;;;;;19.30;10.40;;;;;;;;;;5013068;28;20034;-88
2021/11/06 04:03:22;;;;;;;18.15;10.30;;;;;;;;;;5011092;28;20038;-88
2021/11/06 04:05:47;;;;;;;19.88;9.75;;;;;;;;;;5007809;28;20077;-80
2021/11/06 04:08:13;;;;;;;20.55;9.95;;;;;;;;;;5004522;28;20030;-88
2021/11/06 04:10:38;;;;;;;19.30;10.10;;;;;;;;;;5004682;28;20037;-88
2021/11/06 04:13:04;;;;;;;18.85;10.43;;;;;;;;;;5007542;28;20037;-82
2021/11/06 04:15:29;;;;;;;20.60;9.70;;;;;;;;;;5008501;28;20054;-86
2021/11/06 04:17:55;;;;;;;20.10;10.18;;;;;;;;;;5007657;28;20041;-81
2021/11/06 04:20:21;;;;;;;17.80;9.88;;;;;;;;;;5014093;28;20359;-81
2021/11/06 04:22:50;;;;;;;15.55;10.23;;;;;;;;;;5009737;28;20037;-87
2021/11/06 04:25:16;;;;;;;20.10;10.27;;;;;;;;;;5011149;28;20110;-80
2021/11/06 04:27:41;;;;;;;16.30;9.45;;;;;;;;;;5007175;28;20493;-79
2021/11/06 04:30:07;;;;;;;18.63;10.77;;;;;;;;;;5009456;28;20032;-79
2021/11/06 04:32:32;;;;;;;18.77;10.95;;;;;;;;;;5004724;28;20133;-89
2021/11/06 04:34:58;;;;;;;18.83;10.15;;;;;;;;;;5011631;28;20033;-88
2021/11/06 04:37:23;;;;;;;17.60;9.90;;;;;;;;;;5009873;28;20070;-81
2021/11/06 04:39:49;;;;;;;18.42;11.13;;;;;;;;;;5009888;28;20033;-81
2021/11/06 04:42:14;;;;;;;14.98;9.57;;;;;;;;;;5000487;28;20026;-80
2021/11/06 04:44:39;;;;;;;16.13;9.75;;;;;;;;;;5011887;28;20041;-80
2021/11/06 04:47:05;;;;;;;18.52;10.23;;;;;;;;;;5007393;28;20056;-79
2021/11/06 04:49:30;;;;;;;17.83;10.85;;;;;;;;;;5004935;28;20019;-81
2021/11/06 04:51:56;;;;;;;17.48;10.30;;;;;;;;;;5008499;28;20026;-88
2021/11/06 04:54:21;;;;;;;17.42;10.88;;;;;;;;;;5010936;28;20482;-87
2021/11/06 04:56:49;;;;;;;17.70;9.98;;;;;;;;;;5000264;28;20034;-86
2021/11/06 04:59:15;;;;;;;21.10;10.25;;;;;;;;;;5006508;28;20029;-88
2021/11/06 05:01:40;;;;;;;18.90;10.60;;;;;;;;;;5004216;28;20552;-87
2021/11/06 05:04:05;;;;;;;19.55;10.95;;;;;;;;;;5005238;28;20088;-81
2021/11/06 05:06:31;;;;;;;18.02;10.95;;;;;;;;;;5007651;28;20447;-80
2021/11/06 05:08:56;;;;;;;19.05;10.70;;;;;;;;;;5011327;28;20096;-80
2021/11/06 05:11:22;;;;;;;18.75;10.80;;;;;;;;;;5008830;28;20032;-88
2021/11/06 05:13:47;;;;;;;18.50;10.95;;;;;;;;;;5009379;28;20133;-89
2021/11/06 05:16:13;;;;;;;18.33;11.23;;;;;;;;;;5002091;28;20027;-82
2021/11/06 05:18:38;;;;;;;15.65;9.82;;;;;;;;;;5000480;28;20380;-87
2021/11/06 05:21:03;;;;;;;20.98;11.65;;;;;;;;;;5008123;28;20595;-80
2021/11/06 05:23:29;;;;;;;20.40;11.10;;;;;;;;;;5002501;28;20442;-79
2021/11/06 05:25:54;;;;;;;18.08;10.57;;;;;;;;;;5007880;28;20448;-88
2021/11/06 05:28:20;;;;;;;17.55;11.45;;;;;;;;;;5007699;28;20057;-79
2021/11/06 05:30:45;;;;;;;17.45;11.32;;;;;;;;;;5011785;28;20042;-80
2021/11/06 05:33:11;;;;;;;17.08;10.98;;;;;;;;;;5007972;28;20473;-80
2021/11/06 05:35:37;;;;;;;19.13;11.65;;;;;;;;;;5012522;28;20037;-87
2021/11/06 05:38:02;;;;;;;18.20;10.75;;;;;;;;;;5007351;28;20026;-87
2021/11/06 05:40:28;;;;;;;18.23;10.73;;;;;;;;;;5012799;28;20025;-79
2021/11/06 05:42:53;;;;;;;18.83;12.07;;;;;;;;;;5008860;28;20117;-88
2021/11/06 05:45:19;;;;;;;19.70;12.07;;;;;;;;;;4998944;28;20493;-89
2021/11/06 05:47:44;;;;;;;19.08;11.35;;;;;;;;;;5005840;28;20485;-80
2021/11/06 05:50:11;;;;;;;18.80;11.52;;;;;;;;;;5005292;28;20085;-80
2021/11/06 05:52:38;;;;;;;19.10;10.82;;;;;;;;;;5007889;28;20129;-80
2021/11/06 05:55:06;;;;;;;20.77;11.63;;;;;;;;;;5024456;28;20072;-87
2021/11/06 05:57:34;;;;;;;18.23;11.15;;;;;;;;;;5006902;28;20491;-80
2021/11/06 06:00:00;;;;;;;18.70;11.30;;;;;;;;;;5009347;28;20478;-89
2021/11/06 06:02:25;;;;;;;18.02;11.30;;;;;;;;;;5016192;28;20032;-81
2021/11/06 06:04:50;;;;;;;20.48;12.20;;;;;;;;;;5016330;28;20021;-86
2021/11/06 06:07:16;;;;;;;15.95;10.93;;;;;;;;;;5006141;28;20061;-88
2021/11/06 06:09:41;;;;;;;19.52;11.20;;;;;;;;;;5013916;28;20515;-86
2021/11/06 06:12:07;;;;;;;18.20;10.73;;;;;;;;;;5012249;28;20032;-88
2021/11/06 06:14:32;;;;;;;16.63;10.88;;;;;;;;;;5011086;28;20050;-86
2021/11/06 06:16:58;;;;;;;19.23;11.18;;;;;;;;;;5013406;28;20029;-89
2021/11/06 06:19:23;;;;;;;16.63;10.57;;;;;;;;;;5012856;28;20034;-89
2021/11/06 06:21:48;;;;;;;16.60;10.65;;;;;;;;;;5017160;28;20029;-90
2021/11/06 06:24:14;;;;;;;17.27;11.32;;;;;;;;;;5003749;28;20386;-81
2021/11/06 06:26:39;;;;;;;21.98;11.15;;;;;;;;;;5005541;28;20375;-89
2021/11/06 06:29:04;;;;;;;18.45;11.55;;;;;;;;;;5010502;28;20037;-88
2021/11/06 06:31:30;;;;;;;21.52;11.57;;;;;;;;;;5007934;28;20029;-88
2021/11/06 06:33:55;;;;;;;20.02;10.98;;;;;;;;;;5008020;28;20573;-80
2021/11/06 06:36:21;;;;;;;15.65;10.38;;;;;;;;;;5020461;28;20444;-87
2021/11/06 06:38:46;;;;;;;19.88;11.15;;;;;;;;;;5007012;28;20033;-88
2021/11/06 06:41:11;;;;;;;16.40;10.60;;;;;;;;;;5013311;28;20029;-80
2021/11/06 06:43:37;;;;;;;18.70;11.07;;;;;;;;;;5008076;28;20026;-79
2021/11/06 06:46:03;;;;;;;16.48;11.43;;;;;;;;;;5015047;28;20148;-79
2021/11/06 06:48:28;;;;;;;19.63;11.75;;;;;;;;;;5013068;28;20118;-87
2021/11/06 06:50:54;;;;;;;15.77;11.00;;;;;;;;;;5010640;28;20030;-80
2021/11/06 06:53:20;;;;;;;20.30;11.90;;;;;;;;;;5015834;28;20473;-81
2021/11/06 06:55:46;;;;;;;16.42;11.05;;;;;;;;;;5007550;28;20033;-88
2021/11/06 06:58:12;;;;;;;17.23;11.05;;;;;;;;;;5020219;28;20025;-88
2021/11/06 07:00:37;;;;;;;16.73;10.70;;;;;;;;;;5007826;28;20076;-83
2021/11/06 07:03:03;;;;;;;16.27;10.48;;;;;;;;;;5009629;28;20021;-80
2021/11/06 07:05:29;;;;;;;16.27;11.45;;;;;;;;;;5007095;28;20117;-88
2021/11/06 07:07:56;;;;;;;17.80;10.95;;;;;;;;;;5013637;28;20498;-89
2021/11/06 07:10:23;;;;;;;18.02;10.88;;;;;;;;;;5007005;28;20025;-79
2021/11/06 07:12:49;;;;;;;16.15;10.02;;;;;;;;;;5006586;28;20517;-89
2021/11/06 07:15:14;;;;;;;16.90;10.85;;;;;;;;;;5009713;28;20038;-81
2021/11/06 07:17:40;;;;;;;14.60;10.48;;;;;;;;;;5009640;28;20965;-89
2021/11/06 07:20:06;;;;;;;20.38;10.80;;;;;;;;;;5008404;28;20037;-80
2021/11/06 07:22:32;;;;;;;17.50;10.80;;;;;;;;;;5002886;28;20030;-88
2021/11/06 07:24:57;;;;;;;18.63;10.68;;;;;;;;;;5017394;28;20080;-88
2021/11/06 07:27:23;;;;;;;19.13;10.70;;;;;;;;;;5018463;28;20022;-81
2021/11/06 07:29:48;;;;;;;18.27;9.27;;;;;;;;;;5011918;28;20029;-85
2021/11/06 07:32:14;;;;;;;14.15;10.07;;;;;;;;;;5003479;28;20018;-88
2021/11/06 07:34:39;;;;;;;13.52;9.65;;;;;;;;;;5007501;28;20030;-81
2021/11/06 07:37:06;;;;;;;16.55;10.52;;;;;;;;;;5003898;28;20032;-88
2021/11/06 07:39:32;;;;;;;15.30;9.73;;;;;;;;;;5004146;28;20125;-81
2021/11/06 07:41:57;;;;;;;16.00;9.65;;;;;;;;;;5004140;28;20117;-89
2021/11/06 07:44:22;;;;;;;14.27;9.77;;;;;;;;;;5008583;28;20477;-80
2021/11/06 07:46:48;;;;;;;15.65;10.18;;;;;;;;;;5007406;28;20049;-79
2021/11/06 07:49:13;;;;;;;16.70;10.13;;;;;;;;;;5022489;28;20077;-87
2021/11/06 07:51:39;;;;;;;16.60;10.48;;;;;;;;;;5001934;28;20030;-80
2021/11/06 07:54:04;;;;;;;15.15;9.88;;;;;;;;;;5011129;28;20029;-81
2021/11/06 07:56:30;;;;;;;18.35;10.00;;;;;;;;;;5005608;28;20023;-88
2021/11/06 07:58:57;;;;;;;14.13;9.23;;;;;;;;;;5015012;28;20125;-89
2021/11/06 08:01:22;;;;;;;15.18;9.35;;;;;;;;;;5013687;28;20021;-87
2021/11/06 08:03:48;;;;;;;17.33;10.13;;;;;;;;;;5015001;28;20105;-89
2021/11/06 08:06:14;;;;;;;14.50;9.95;;;;;;;;;;5006998;28;20025;-87
2021/11/06 08:08:40;;;;;;;15.55;9.45;;;;;;;;;;5011973;28;20290;-88
2021/11/06 08:11:05;;;;;;;13.18;9.32;;;;;;;;;;5022632;28;20024;-80
2021/11/06 08:13:33;;;;;;;14.20;9.13;;;;;;;;;;5015525;28;20021;-81
2021/11/06 08:15:58;;;;;;;13.40;9.02;;;;;;;;;;5008134;28;20444;-80
2021/11/06 08:18:24;;;;;;;16.88;9.23;;;;;;;;;;5013784;28;20057;-80
2021/11/06 08:20:50;;;;;;;16.42;9.77;;;;;;;;;;5021352;28;20029;-80
2021/11/06 08:23:15;;;;;;;15.55;9.90;;;;;;;;;;5015142;28;20081;-80
2021/11/06 08:25:41;;;;;;;15.90;9.80;;;;;;;;;;5005459;28;20393;-89
2021/11/06 08:28:06;;;;;;;14.63;9.13;;;;;;;;;;5013397;28;20048;-87
2021/11/06 08:30:32;;;;;;;14.98;9.35;;;;;;;;;;5007424;28;20025;-80
2021/11/06 08:32:58;;;;;;;15.38;9.20;;;;;;;;;;5024396;28;20068;-89
2021/11/06 08:35:27;;;;;;;13.63;9.85;;;;;;;;;;5015249;28;20033;-79
2021/11/06 08:37:53;;;;;;;17.10;10.10;;;;;;;;;;5022039;28;20366;-85
2021/11/06 08:40:19;;;;;;;13.32;9.20;;;;;;;;;;5007961;28;20040;-88
2021/11/06 08:42:44;;;;;;;15.43;9.32;;;;;;;;;;5022058;28;20029;-87
2021/11/06 08:45:14;;;;;;;12.85;8.88;;;;;;;;;;5021303;28;20030;-80
2021/11/06 08:47:41;;;;;;;15.27;9.10;;;;;;;;;;5018389;28;20036;-89
2021/11/06 08:50:12;;;;;;;14.18;8.73;;;;;;;;;;5013120;28;20033;-81
2021/11/06 08:52:38;;;;;;;16.58;8.90;;;;;;;;;;5007867;28;20037;-89
2021/11/06 08:55:06;;;;;;;14.00;8.50;;;;;;;;;;5010328;28;20029;-89
2021/11/06 08:57:37;;;;;;;14.95;8.27;;;;;;;;;;5009859;28;20109;-89
2021/11/06 09:00:07;;;;;;;17.05;9.27;;;;;;;;;;5020303;28;20026;-81
2021/11/06 09:02:33;;;;;;;12.48;8.00;;;;;;;;;;5007624;28;20034;-80
2021/11/06 09:04:59;;;;;;;15.95;8.98;;;;;;;;;;5013959;28;20026;-88
2021/11/06 09:07:25;;;;;;;13.25;8.68;;;;;;;;;;5017666;28;20032;-79
2021/11/06 09:09:50;;;;;;;14.00;8.20;;;;;;;;;;5008504;28;20026;-80
2021/11/06 09:12:15;;;;;;;14.30;8.63;;;;;;;;;;5008824;28;20030;-89
2021/11/06 09:14:41;;;;;;;14.05;8.45;;;;;;;;;;5010281;28;20125;-88
2021/11/06 09:17:06;;;;;;;12.35;8.13;;;;;;;;;;5012120;28;20026;-89
2021/11/06 09:19:31;;;;;;;11.60;7.90;;;;;;;;;;5010356;28;20022;-79
2021/11/06 09:21:57;;;;;;;12.82;7.63;;;;;;;;;;5014957;28;20030;-80
2021/11/06 09:24:22;;;;;;;13.23;7.78;;;;;;;;;;5006959;28;20490;-79
2021/11/06 09:26:48;;;;;;;14.70;8.25;;;;;;;;;;5009750;28;20038;-79
2021/11/06 09:29:16;;;;;;;13.68;8.38;;;;;;;;;;5009741;28;20056;-80
2021/11/06 09:31:42;;;;;;;12.88;8.05;;;;;;;;;;5016780;28;20113;-88
2021/11/06 09:34:08;;;;;;;16.15;8.15;;;;;;;;;;5013901;28;20030;-80
2021/11/06 09:36:34;;;;;;;13.20;8.25;;;;;;;;;;5009849;28;20030;-86
2021/11/06 09:39:02;;;;;;;14.85;8.38;;;;;;;;;;5006002;28;21565;-80
2021/11/06 09:41:28;;;;;;;12.65;8.23;;;;;;;;;;5014846;28;20108;-88
2021/11/06 09:43:54;;;;;;;11.80;7.75;;;;;;;;;;5006306;28;20658;-81
2021/11/06 09:46:19;;;;;;;13.07;8.13;;;;;;;;;;5008026;28;20076;-81
2021/11/06 09:48:46;;;;;;;10.52;7.10;;;;;;;;;;5022083;28;20040;-88
2021/11/06 09:51:13;;;;;;;13.00;7.78;;;;;;;;;;5014281;28;20029;-81
2021/11/06 09:53:40;;;;;;;11.70;7.18;;;;;;;;;;5017666;28;20110;-82
2021/11/06 09:56:15;;;;;;;10.15;6.75;;;;;;;;;;5004794;28;20040;-88
2021/11/06 09:58:42;;;;;;;10.65;6.72;;;;;;;;;;4993631;28;20038;-81
2021/11/06 10:01:08;;;;;;;12.48;7.20;;;;;;;;;;5012896;28;20045;-82
2021/11/06 10:03:35;;;;;;;10.02;7.00;;;;;;;;;;5009617;28;20564;-88
2021/11/06 10:06:04;;;;;;;10.20;6.32;;;;;;;;;;5008007;28;20786;-81
2021/11/06 10:08:38;;;;;;;12.13;6.70;;;;;;;;;;5010874;28;20025;-86
2021/11/06 10:11:11;;;;;;;9.50;6.45;;;;;;;;;;5008737;28;20032;-88
2021/11/06 10:14:01;;;;;;;10.23;6.60;;;;;;;;;;5007395;28;20151;-80
2021/11/06 10:16:55;;;;;;;10.75;6.60;;;;;;;;;;5008802;28;20378;-80
2021/11/06 10:19:29;;;;;;;9.73;6.43;;;;;;;;;;5016274;28;20478;-82
2021/11/06 10:22:15;;;;;;;11.95;6.63;;;;;;;;;;5019153;28;20072;-86
2021/11/06 10:24:53;;;;;;;10.45;6.32;;;;;;;;;;5009604;28;20468;-87
2021/11/06 10:27:27;;;;;;;9.88;6.10;;;;;;;;;;5012776;28;20472;-88
2021/11/06 10:30:16;;;;;;;11.18;6.28;;;;;;;;;;4994928;28;20026;-88
2021/11/06 10:32:55;;;;;;;9.00;5.90;;;;;;;;;;5006342;28;20440;-88
2021/11/06 10:35:23;;;;;;;9.68;6.35;;;;;;;;;;5010515;28;20380;-87
2021/11/06 10:37:59;;;;;;;8.90;5.97;;;;;;;;;;5009212;28;20038;-88
2021/11/06 10:40:30;;;;;;;8.85;5.80;;;;;;;;;;5004423;28;20494;-87
2021/11/06 10:42:57;;;;;;;10.98;6.13;;;;;;;;;;5002211;28;20505;-82
2021/11/06 10:45:25;;;;;;;9.43;6.05;;;;;;;;;;5001715;28;20037;-86
2021/11/06 10:48:06;;;;;;;9.25;6.45;;;;;;;;;;4998745;28;20112;-80
2021/11/06 10:50:55;;;;;;;10.40;6.22;;;;;;;;;;4999846;28;20055;-84
2021/11/06 10:53:44;;;;;;;10.77;6.63;;;;;;;;;;5000932;28;20056;-89
2021/11/06 10:56:13;;;;;;;11.57;6.35;;;;;;;;;;5000318;28;20018;-82
2021/11/06 10:58:39;;;;;;;11.43;6.10;;;;;;;;;;4993033;28;20037;-81
2021/11/06 11:01:08;;;;;;;8.63;5.43;;;;;;;;;;5003674;28;20026;-81
2021/11/06 11:03:40;;;;;;;12.05;6.15;;;;;;;;;;4995517;28;20026;-84
2021/11/06 11:06:10;;;;;;;11.05;6.05;;;;;;;;;;5003152;28;20041;-81
2021/11/06 11:08:46;;;;;;;8.25;5.90;;;;;;;;;;5010041;28;21884;-86
2021/11/06 11:11:13;;;;;;;8.77;6.10;;;;;;;;;;5005974;28;20139;-85
2021/11/06 11:13:53;;;;;;;11.35;6.90;;;;;;;;;;5010785;28;20041;-86
2021/11/06 11:16:20;;;;;;;10.70;6.30;;;;;;;;;;5013330;28;20018;-87
2021/11/06 11:18:48;;;;;;;14.88;6.40;;;;;;;;;;5013049;28;20036;-83
2021/11/06 11:21:27;;;;;;;9.73;6.40;;;;;;;;;;5015028;28;20034;-81
2021/11/06 11:24:15;;;;;;;8.70;6.00;;;;;;;;;;5010364;28;20277;-84
2021/11/06 11:27:12;;;;;;;10.18;5.97;;;;;;;;;;5010139;28;20030;-85
2021/11/06 11:29:42;;;;;;;9.68;5.93;;;;;;;;;;5010919;28;20033;-90
2021/11/06 11:32:16;;;;;;;9.88;6.80;;;;;;;;;;5008761;28;20128;-89
2021/11/06 11:34:45;;;;;;;12.73;6.03;;;;;;;;;;5012404;28;20032;-86
2021/11/06 11:37:11;;;;;;;12.65;6.65;;;;;;;;;;5006538;28;20030;-88
2021/11/06 11:39:43;;;;;;;9.52;6.10;;;;;;;;;;5009861;28;20106;-83
2021/11/06 11:42:17;;;;;;;8.88;6.10;;;;;;;;;;5002505;28;20026;-88
2021/11/06 11:44:46;;;;;;;9.82;6.68;;;;;;;;;;5011974;28;20389;-81
2021/11/06 11:47:50;;;;;;;9.90;6.57;;;;;;;;;;5010075;28;20025;-85
2021/11/06 11:50:21;;;;;;;11.13;5.95;;;;;;;;;;5014095;28;20095;-83
2021/11/06 11:52:51;;;;;;;9.43;6.10;;;;;;;;;;5017647;28;20036;-85
2021/11/06 11:55:20;;;;;;;10.50;6.28;;;;;;;;;;5019418;28;20092;-83
2021/11/06 11:58:03;;;;;;;9.02;6.25;;;;;;;;;;5021236;28;20093;-84
2021/11/06 12:00:29;;;;;;;10.82;5.70;;;;;;;;;;5005351;28;20026;-85
2021/11/06 12:03:00;;;;;;;12.73;6.05;;;;;;;;;;5006489;28;20445;-84
2021/11/06 12:05:33;;;;;;;11.10;6.32;;;;;;;;;;5013934;28;20140;-87
2021/11/06 12:08:11;;;;;;;13.65;6.18;;;;;;;;;;5007855;28;20034;-83
2021/11/06 12:10:44;;;;;;;10.27;6.38;;;;;;;;;;5009098;28;20113;-83
2021/11/06 12:13:30;;;;;;;14.32;6.88;;;;;;;;;;5002403;28;20033;-83
2021/11/06 12:16:11;;;;;;;13.15;6.45;;;;;;;;;;5000306;28;20053;-81
2021/11/06 12:18:36;;;;;;;8.52;6.47;;;;;;;;;;5002267;28;20049;-82
2021/11/06 12:21:24;;;;;;;8.85;6.30;;;;;;;;;;5004343;28;20037;-81
2021/11/06 12:23:54;;;;;;;9.80;6.43;;;;;;;;;;5003294;28;20022;-83
2021/11/06 12:26:23;;;;;;;9.80;6.43;;;;;;;;;;5011450;28;20100;-82
2021/11/06 12:28:51;;;;;;;9.82;6.38;;;;;;;;;;5019726;28;20034;-81
2021/11/06 12:31:23;;;;;;;11.50;6.22;;;;;;;;;;5008625;28;20025;-82
2021/11/06 12:33:49;;;;;;;11.45;6.45;;;;;;;;;;4999891;28;20022;-81
2021/11/06 12:36:28;;;;;;;9.65;6.57;;;;;;;;;;5000574;28;20034;-82
2021/11/06 12:39:01;;;;;;;9.27;6.32;;;;;;;;;;5009335;28;20029;-82
2021/11/06 12:41:27;;;;;;;10.15;6.10;;;;;;;;;;5012074;28;20030;-83
2021/11/06 12:43:54;;;;;;;14.52;6.90;;;;;;;;;;5008729;28;20113;-82
2021/11/06 12:46:24;;;;;;;12.95;7.45;;;;;;;;;;5004400;28;20027;-81
2021/11/06 12:48:51;;;;;;;11.50;6.78;;;;;;;;;;5012279;28;20069;-82
2021/11/06 12:51:22;;;;;;;9.20;6.95;;;;;;;;;;5012491;28;20034;-81
2021/11/06 12:53:53;;;;;;;9.60;6.20;;;;;;;;;;5002218;28;20265;-82
2021/11/06 12:56:21;;;;;;;12.80;7.15;;;;;;;;;;5009733;28;20034;-82
2021/11/06 12:59:03;;;;;;;13.70;6.47;;;;;;;;;;5008592;28;20049;-80
2021/11/06 13:04:03;;;;;;;;;;;;;;;;;;4988392;28;20042;-81
2021/11/06 13:06:37;;;;;;;10.38;6.03;;;;;;;;;;4994834;28;19921;-81
2021/11/06 13:09:29;;;;;;;13.98;6.78;;;;;;;;;;5002981;28;20058;-82
2021/11/06 13:12:05;;;;;;;10.05;6.50;;;;;;;;;;4989431;28;20071;-80
2021/11/06 13:14:37;;;;;;;10.57;6.80;;;;;;;;;;4993530;28;20042;-81
2021/11/06 13:17:16;;;;;;;9.63;6.22;;;;;;;;;;5001851;28;20030;-82
2021/11/06 13:19:59;;;;;;;10.55;6.88;;;;;;;;;;4987113;28;20041;-82
2021/11/06 13:22:24;;;;;;;;;;;;;;;;;;5010197;28;20149;-82
2021/11/06 13:25:05;;;;;;;9.15;6.22;;;;;;;;;;4990043;28;20012;-83
2021/11/06 13:27:35;;;;;;;10.40;5.80;;;;;;;;;;4998099;28;20026;-82
2021/11/06 13:30:12;;;;;;;11.05;6.07;;;;;;;;;;5009318;28;20025;-81
2021/11/06 13:32:53;;;;;;;8.32;5.47;;;;;;;;;;5002749;28;20060;-81
2021/11/06 13:35:21;;;;;;;10.52;5.80;;;;;;;;;;4991992;28;20038;-83
2021/11/06 13:38:16;;;;;;;8.90;5.60;;;;;;;;;;4986777;28;20023;-82
2021/11/06 13:40:42;;;;;;;8.13;5.75;;;;;;;;;;4993317;28;20052;-82
2021/11/06 13:43:37;;;;;;;10.25;6.03;;;;;;;;;;4992416;28;20033;-83
2021/11/06 13:46:31;;;;;;;8.45;5.53;;;;;;;;;;4981652;28;20041;-81
2021/11/06 13:49:21;;;;;;;8.30;5.70;;;;;;;;;;4993236;28;20109;-82
2021/11/06 13:51:53;;;;;;;11.27;5.50;;;;;;;;;;4990568;28;20038;-82
2021/11/06 13:54:31;;;;;;;7.90;5.30;;;;;;;;;;5004497;28;20026;-81
2021/11/06 13:57:07;;;;;;;8.23;5.32;;;;;;;;;;4979657;28;20152;-81
2021/11/06 13:59:34;;;;;;;12.25;5.55;;;;;;;;;;4978749;28;20101;-82
2021/11/06 14:02:04;;;;;;;9.50;5.32;;;;;;;;;;4998483;28;20075;-81
2021/11/06 14:04:32;;;;;;;9.90;5.00;;;;;;;;;;4970184;28;20027;-82
2021/11/06 14:06:58;;;;;;;8.27;4.93;;;;;;;;;;4985562;28;20042;-81
2021/11/06 14:09:24;;;;;;;8.85;5.25;;;;;;;;;;4954241;28;20031;-82
2021/11/06 14:11:52;;;;;;;8.90;5.57;;;;;;;;;;4958514;28;20049;-82
2021/11/06 14:14:19;;;;;;;9.70;6.80;;;;;;;;;;4959188;28;20395;-82
2021/11/06 14:17:02;;;;;;;12.10;5.97;;;;;;;;;;4974251;28;20030;-81
2021/11/06 14:19:27;;;;;;;7.63;5.18;;;;;;;;;;4960854;28;20113;-81
2021/11/06 14:22:03;;;;;;;8.18;4.95;;;;;;;;;;4960558;28;20165;-81
2021/11/06 14:24:34;;;;;;;8.70;5.30;;;;;;;;;;4963275;28;20033;-81
2021/11/06 14:27:00;;;;;;;8.98;5.43;;;;;;;;;;4963004;28;20026;-82
2021/11/06 14:29:27;;;;;;;11.80;5.68;;;;;;;;;;4961448;28;20030;-82
2021/11/06 14:31:53;;;;;;;8.35;5.50;;;;;;;;;;4961735;28;20726;-82
2021/11/06 14:34:22;;;;;;;8.35;5.20;;;;;;;;;;4959717;28;20042;-82
2021/11/06 14:36:55;;;;;;;8.63;5.40;;;;;;;;;;4965779;28;20038;-81